Terminal Aerodrome Forecast
Issued by NWS Northern Indiana

Home | Current Version | Previous Version | Text Only | Print | Product List | Glossary On
Versions: 1 2 3 4 5 6 7 8 9 10 11 12 13
664
FTUS43 KIWX 301120
TAFFWA
TAF
KFWA 301120Z 3012/0112 05010KT P6SM BKN010
     FM301400 06011KT 5SM -SHRA BR OVC015
     FM010500 09004KT 5SM BR VCSH BKN008=

USA.gov is the U.S. government's official web portal to all federal, state and local government web resources and services.